sensor_id;sensor_type;location;lat;lon;timestamp;pressure;altitude;pressure_sealevel;temperature;humidity
3150;BME280;32503;47.748;8.960;2023-03-01T00:01:02;97418.63;;;3.28;60.33
3150;BME280;32503;47.748;8.960;2023-03-01T00:03:30;97418.00;;;3.17;59.63
3150;BME280;32503;47.748;8.960;2023-03-01T00:05:58;97414.41;;;3.08;58.45
3150;BME280;32503;47.748;8.960;2023-03-01T00:08:26;97410.72;;;3.03;58.65
3150;BME280;32503;47.748;8.960;2023-03-01T00:11:01;97410.81;;;2.98;57.75
3150;BME280;32503;47.748;8.960;2023-03-01T00:13:28;97412.53;;;2.89;57.95
3150;BME280;32503;47.748;8.960;2023-03-01T00:15:55;97407.47;;;2.88;57.61
3150;BME280;32503;47.748;8.960;2023-03-01T00:18:23;97401.34;;;2.87;57.24
3150;BME280;32503;47.748;8.960;2023-03-01T00:20:52;97370.84;;;2.74;57.54
3150;BME280;32503;47.748;8.960;2023-03-01T00:23:20;97402.38;;;2.91;57.13
3150;BME280;32503;47.748;8.960;2023-03-01T00:25:47;97399.72;;;2.91;57.08
3150;BME280;32503;47.748;8.960;2023-03-01T00:28:15;97389.59;;;2.88;57.57
3150;BME280;32503;47.748;8.960;2023-03-01T00:30:42;97383.69;;;2.91;57.35
3150;BME280;32503;47.748;8.960;2023-03-01T00:33:09;97371.56;;;2.80;57.35
3150;BME280;32503;47.748;8.960;2023-03-01T00:35:36;97384.19;;;2.93;57.27
3150;BME280;32503;47.748;8.960;2023-03-01T00:38:04;97365.22;;;2.76;56.92
3150;BME280;32503;47.748;8.960;2023-03-01T00:40:34;97384.56;;;2.87;56.95
3150;BME280;32503;47.748;8.960;2023-03-01T00:43:03;97389.03;;;2.91;57.28
3150;BME280;32503;47.748;8.960;2023-03-01T00:45:30;97382.31;;;2.94;57.22
3150;BME280;32503;47.748;8.960;2023-03-01T00:47:57;97383.09;;;2.94;57.38
3150;BME280;32503;47.748;8.960;2023-03-01T00:50:25;97377.94;;;2.98;57.14
3150;BME280;32503;47.748;8.960;2023-03-01T00:52:54;97383.28;;;2.98;57.28
3150;BME280;32503;47.748;8.960;2023-03-01T00:55:24;97362.91;;;2.88;56.93
3150;BME280;32503;47.748;8.960;2023-03-01T00:57:51;97360.50;;;2.87;56.65
3150;BME280;32503;47.748;8.960;2023-03-01T01:00:19;97370.34;;;2.91;57.20
3150;BME280;32503;47.748;8.960;2023-03-01T01:02:47;97380.34;;;2.99;56.86
3150;BME280;32503;47.748;8.960;2023-03-01T01:05:15;97367.66;;;2.91;56.98
3150;BME280;32503;47.748;8.960;2023-03-01T01:07:47;97370.22;;;2.96;57.20
3150;BME280;32503;47.748;8.960;2023-03-01T01:10:14;97363.31;;;2.95;57.29
3150;BME280;32503;47.748;8.960;2023-03-01T01:12:44;97355.00;;;2.97;57.00
3150;BME280;32503;47.748;8.960;2023-03-01T01:15:12;97367.97;;;3.03;56.97
3150;BME280;32503;47.748;8.960;2023-03-01T01:17:42;97331.50;;;2.80;57.35
3150;BME280;32503;47.748;8.960;2023-03-01T01:20:11;97338.84;;;2.88;57.14
3150;BME280;32503;47.748;8.960;2023-03-01T01:22:38;97347.69;;;3.02;57.33
3150;BME280;32503;47.748;8.960;2023-03-01T01:25:06;97353.47;;;3.10;57.00
3150;BME280;32503;47.748;8.960;2023-03-01T01:27:34;97353.66;;;3.13;56.85
3150;BME280;32503;47.748;8.960;2023-03-01T01:30:04;97335.03;;;3.08;57.15
3150;BME280;32503;47.748;8.960;2023-03-01T01:32:31;97335.25;;;3.12;57.61
3150;BME280;32503;47.748;8.960;2023-03-01T01:34:58;97337.13;;;3.11;57.69
3150;BME280;32503;47.748;8.960;2023-03-01T01:37:25;97329.13;;;3.11;57.53
3150;BME280;32503;47.748;8.960;2023-03-01T01:39:57;97327.72;;;3.14;57.50
3150;BME280;32503;47.748;8.960;2023-03-01T01:42:24;97325.16;;;3.09;57.71
3150;BME280;32503;47.748;8.960;2023-03-01T01:45:33;97329.81;;;3.17;57.87
3150;BME280;32503;47.748;8.960;2023-03-01T01:48:03;97326.16;;;3.13;57.50
3150;BME280;32503;47.748;8.960;2023-03-01T01:50:33;97276.63;;;2.88;57.61
3150;BME280;32503;47.748;8.960;2023-03-01T01:53:09;97318.84;;;3.18;57.52
3150;BME280;32503;47.748;8.960;2023-03-01T01:55:42;97315.88;;;3.20;57.43
3150;BME280;32503;47.748;8.960;2023-03-01T01:58:15;97305.69;;;3.22;57.54
3150;BME280;32503;47.748;8.960;2023-03-01T02:00:45;97303.78;;;3.22;57.39
3150;BME280;32503;47.748;8.960;2023-03-01T02:03:19;97293.72;;;3.19;57.40
3150;BME280;32503;47.748;8.960;2023-03-01T02:05:52;97298.66;;;3.26;57.45
3150;BME280;32503;47.748;8.960;2023-03-01T02:08:25;97301.31;;;3.26;57.75
3150;BME280;32503;47.748;8.960;2023-03-01T02:10:53;97305.59;;;3.27;57.79
3150;BME280;32503;47.748;8.960;2023-03-01T02:13:21;97294.91;;;3.27;57.70
3150;BME280;32503;47.748;8.960;2023-03-01T02:15:50;97298.06;;;3.29;57.59
3150;BME280;32503;47.748;8.960;2023-03-01T02:18:18;97288.97;;;3.30;57.34
3150;BME280;32503;47.748;8.960;2023-03-01T02:21:03;97296.66;;;3.32;57.44
3150;BME280;32503;47.748;8.960;2023-03-01T02:23:34;97273.34;;;3.23;57.09
3150;BME280;32503;47.748;8.960;2023-03-01T02:26:07;97283.84;;;3.34;56.96
3150;BME280;32503;47.748;8.960;2023-03-01T02:28:40;97283.03;;;3.33;57.52
3150;BME280;32503;47.748;8.960;2023-03-01T02:31:09;97286.78;;;3.32;57.19
3150;BME280;32503;47.748;8.960;2023-03-01T02:33:55;97280.06;;;3.35;57.14
3150;BME280;32503;47.748;8.960;2023-03-01T02:36:29;97281.44;;;3.32;57.53
3150;BME280;32503;47.748;8.960;2023-03-01T02:38:59;97281.44;;;3.32;57.56
3150;BME280;32503;47.748;8.960;2023-03-01T02:41:32;97271.84;;;3.31;57.20
3150;BME280;32503;47.748;8.960;2023-03-01T02:44:03;97279.28;;;3.34;57.18
3150;BME280;32503;47.748;8.960;2023-03-01T02:46:31;97272.84;;;3.35;57.32
3150;BME280;32503;47.748;8.960;2023-03-01T02:48:58;97270.75;;;3.32;57.50
3150;BME280;32503;47.748;8.960;2023-03-01T02:51:39;97265.31;;;3.37;57.41
3150;BME280;32503;47.748;8.960;2023-03-01T02:54:21;97272.53;;;3.37;57.36
3150;BME280;32503;47.748;8.960;2023-03-01T02:56:49;97269.38;;;3.35;57.58
3150;BME280;32503;47.748;8.960;2023-03-01T02:59:22;97259.69;;;3.39;57.52
3150;BME280;32503;47.748;8.960;2023-03-01T03:01:49;97228.19;;;3.22;57.71
3150;BME280;32503;47.748;8.960;2023-03-01T03:04:19;97245.81;;;3.23;57.21
3150;BME280;32503;47.748;8.960;2023-03-01T03:06:49;97263.22;;;3.34;57.06
3150;BME280;32503;47.748;8.960;2023-03-01T03:09:17;97260.56;;;3.34;57.53
3150;BME280;32503;47.748;8.960;2023-03-01T03:11:45;97249.00;;;3.25;57.43
3150;BME280;32503;47.748;8.960;2023-03-01T03:14:15;97225.13;;;3.15;57.60
3150;BME280;32503;47.748;8.960;2023-03-01T03:16:46;97239.28;;;3.29;57.11
3150;BME280;32503;47.748;8.960;2023-03-01T03:19:14;97253.63;;;3.33;57.41
3150;BME280;32503;47.748;8.960;2023-03-01T03:21:42;97255.72;;;3.36;57.40
3150;BME280;32503;47.748;8.960;2023-03-01T03:24:09;97252.06;;;3.32;57.33
3150;BME280;32503;47.748;8.960;2023-03-01T03:26:36;97248.19;;;3.38;56.98
3150;BME280;32503;47.748;8.960;2023-03-01T03:29:03;97248.38;;;3.42;57.34
3150;BME280;32503;47.748;8.960;2023-03-01T03:31:30;97250.06;;;3.38;57.13
3150;BME280;32503;47.748;8.960;2023-03-01T03:33:59;97255.13;;;3.39;57.30
3150;BME280;32503;47.748;8.960;2023-03-01T03:36:26;97244.44;;;3.39;57.32
3150;BME280;32503;47.748;8.960;2023-03-01T03:38:53;97249.38;;;3.46;57.28
3150;BME280;32503;47.748;8.960;2023-03-01T03:41:20;97252.16;;;3.41;57.20
3150;BME280;32503;47.748;8.960;2023-03-01T03:43:47;97246.63;;;3.37;57.20
3150;BME280;32503;47.748;8.960;2023-03-01T03:46:14;97249.78;;;3.39;57.26
3150;BME280;32503;47.748;8.960;2023-03-01T03:48:44;97244.63;;;3.29;57.39
3150;BME280;32503;47.748;8.960;2023-03-01T03:51:15;97235.44;;;3.21;57.29
3150;BME280;32503;47.748;8.960;2023-03-01T03:53:43;97221.88;;;3.18;57.51
3150;BME280;32503;47.748;8.960;2023-03-01T03:56:11;97235.13;;;3.23;57.28
3150;BME280;32503;47.748;8.960;2023-03-01T03:58:38;97250.38;;;3.36;57.58
3150;BME280;32503;47.748;8.960;2023-03-01T04:01:06;97242.34;;;3.36;57.66
3150;BME280;32503;47.748;8.960;2023-03-01T04:03:33;97242.84;;;3.38;57.47
3150;BME280;32503;47.748;8.960;2023-03-01T04:06:02;97241.28;;;3.37;57.16
3150;BME280;32503;47.748;8.960;2023-03-01T04:08:32;97243.75;;;3.34;57.64
3150;BME280;32503;47.748;8.960;2023-03-01T04:11:02;97210.59;;;3.07;57.87
3150;BME280;32503;47.748;8.960;2023-03-01T04:13:54;97240.88;;;3.16;58.37
3150;BME280;32503;47.748;8.960;2023-03-01T04:16:21;97241.06;;;3.20;57.91
3150;BME280;32503;47.748;8.960;2023-03-01T04:18:49;97232.47;;;3.23;58.14
3150;BME280;32503;47.748;8.960;2023-03-01T04:21:16;97236.91;;;3.14;58.64
3150;BME280;32503;47.748;8.960;2023-03-01T04:23:45;97244.44;;;3.26;57.86
3150;BME280;32503;47.748;8.960;2023-03-01T04:26:12;97232.56;;;3.18;58.24
3150;BME280;32503;47.748;8.960;2023-03-01T04:28:41;97218.88;;;2.78;58.78
3150;BME280;32503;47.748;8.960;2023-03-01T04:31:13;97237.69;;;3.00;58.62
3150;BME280;32503;47.748;8.960;2023-03-01T04:33:43;97236.59;;;3.01;59.18
3150;BME280;32503;47.748;8.960;2023-03-01T04:36:12;97232.66;;;3.13;59.03
3150;BME280;32503;47.748;8.960;2023-03-01T04:38:40;97223.84;;;2.98;58.55
3150;BME280;32503;47.748;8.960;2023-03-01T04:41:10;97228.59;;;3.15;58.58
3150;BME280;32503;47.748;8.960;2023-03-01T04:43:37;97229.38;;;3.16;58.32
3150;BME280;32503;47.748;8.960;2023-03-01T04:46:07;97197.72;;;2.95;58.56
3150;BME280;32503;47.748;8.960;2023-03-01T04:48:35;97195.25;;;2.99;58.23
3150;BME280;32503;47.748;8.960;2023-03-01T04:51:04;97224.34;;;3.14;58.28
3150;BME280;32503;47.748;8.960;2023-03-01T04:53:33;97208.03;;;3.02;58.69
3150;BME280;32503;47.748;8.960;2023-03-01T04:56:02;97198.69;;;2.99;58.43
3150;BME280;32503;47.748;8.960;2023-03-01T04:58:31;97229.38;;;3.16;58.61
3150;BME280;32503;47.748;8.960;2023-03-01T05:00:58;97220.09;;;3.13;58.48
3150;BME280;32503;47.748;8.960;2023-03-01T05:03:25;97226.00;;;2.82;59.98
3150;BME280;32503;47.748;8.960;2023-03-01T05:05:53;97217.88;;;3.01;59.14
3150;BME280;32503;47.748;8.960;2023-03-01T05:08:20;97212.75;;;3.05;58.96
3150;BME280;32503;47.748;8.960;2023-03-01T05:10:50;97203.06;;;2.95;58.75
3150;BME280;32503;47.748;8.960;2023-03-01T05:13:19;97194.06;;;2.91;59.03
3150;BME280;32503;47.748;8.960;2023-03-01T05:15:53;97216.72;;;3.08;58.97
3150;BME280;32503;47.748;8.960;2023-03-01T05:18:21;97207.50;;;3.14;58.85
3150;BME280;32503;47.748;8.960;2023-03-01T05:20:51;97208.00;;;2.88;59.41
3150;BME280;32503;47.748;8.960;2023-03-01T05:23:21;97207.69;;;3.03;58.82
3150;BME280;32503;47.748;8.960;2023-03-01T05:25:49;97205.66;;;3.14;59.19
3150;BME280;32503;47.748;8.960;2023-03-01T05:28:19;97203.25;;;3.13;58.70
3150;BME280;32503;47.748;8.960;2023-03-01T05:30:48;97203.66;;;3.20;58.50
3150;BME280;32503;47.748;8.960;2023-03-01T05:33:17;97205.75;;;3.23;58.60
3150;BME280;32503;47.748;8.960;2023-03-01T05:35:45;97205.03;;;3.17;59.15
3150;BME280;32503;47.748;8.960;2023-03-01T05:38:15;97204.44;;;3.20;58.85
3150;BME280;32503;47.748;8.960;2023-03-01T05:40:44;97205.84;;;3.18;58.96
3150;BME280;32503;47.748;8.960;2023-03-01T05:43:12;97195.16;;;3.18;59.22
3150;BME280;32503;47.748;8.960;2023-03-01T05:45:41;97185.25;;;3.18;58.94
3150;BME280;32503;47.748;8.960;2023-03-01T05:48:10;97166.56;;;3.04;59.19
3150;BME280;32503;47.748;8.960;2023-03-01T05:50:40;97191.47;;;3.28;58.75
3150;BME280;32503;47.748;8.960;2023-03-01T05:53:11;97171.00;;;3.23;58.88
3150;BME280;32503;47.748;8.960;2023-03-01T05:55:40;97154.38;;;3.12;58.64
3150;BME280;32503;47.748;8.960;2023-03-01T05:58:11;97186.31;;;3.31;58.52
3150;BME280;32503;47.748;8.960;2023-03-01T06:00:40;97173.44;;;3.33;58.76
3150;BME280;32503;47.748;8.960;2023-03-01T06:03:10;97172.56;;;3.24;58.89
3150;BME280;32503;47.748;8.960;2023-03-01T06:05:38;97171.59;;;3.20;58.79
3150;BME280;32503;47.748;8.960;2023-03-01T06:08:06;97165.66;;;3.09;59.24
3150;BME280;32503;47.748;8.960;2023-03-01T06:10:33;97152.91;;;3.06;59.05
3150;BME280;32503;47.748;8.960;2023-03-01T06:13:01;97177.22;;;3.32;58.77
3150;BME280;32503;47.748;8.960;2023-03-01T06:15:28;97175.94;;;3.30;58.45
3150;BME280;32503;47.748;8.960;2023-03-01T06:17:55;97183.06;;;3.34;58.89
3150;BME280;32503;47.748;8.960;2023-03-01T06:20:26;97174.16;;;3.25;59.14
3150;BME280;32503;47.748;8.960;2023-03-01T06:22:54;97167.63;;;3.17;58.97
3150;BME280;32503;47.748;8.960;2023-03-01T06:25:24;97166.66;;;3.13;58.81
3150;BME280;32503;47.748;8.960;2023-03-01T06:27:52;97177.72;;;3.20;59.24
3150;BME280;32503;47.748;8.960;2023-03-01T06:30:21;97162.19;;;3.09;59.03
3150;BME280;32503;47.748;8.960;2023-03-01T06:32:49;97188.59;;;3.24;58.97
3150;BME280;32503;47.748;8.960;2023-03-01T06:35:18;97158.16;;;3.11;58.93
3150;BME280;32503;47.748;8.960;2023-03-01T06:37:48;97179.50;;;3.25;58.90
3150;BME280;32503;47.748;8.960;2023-03-01T06:40:15;97135.72;;;2.98;58.53
3150;BME280;32503;47.748;8.960;2023-03-01T06:42:47;97178.69;;;3.25;59.09
3150;BME280;32503;47.748;8.960;2023-03-01T06:45:16;97183.16;;;3.29;59.12
3150;BME280;32503;47.748;8.960;2023-03-01T06:47:43;97151.59;;;3.03;59.23
3150;BME280;32503;47.748;8.960;2023-03-01T06:50:11;97177.03;;;3.29;58.81
3150;BME280;32503;47.748;8.960;2023-03-01T06:52:38;97187.44;;;3.30;59.20
3150;BME280;32503;47.748;8.960;2023-03-01T06:55:08;97188.31;;;3.39;58.67
3150;BME280;32503;47.748;8.960;2023-03-01T06:57:35;97187.00;;;3.37;58.66
3150;BME280;32503;47.748;8.960;2023-03-01T07:00:03;97172.47;;;3.29;58.54
3150;BME280;32503;47.748;8.960;2023-03-01T07:02:30;97185.25;;;3.32;58.45
3150;BME280;32503;47.748;8.960;2023-03-01T07:04:57;97188.59;;;3.38;58.65
3150;BME280;32503;47.748;8.960;2023-03-01T07:07:24;97194.81;;;3.33;58.79
3150;BME280;32503;47.748;8.960;2023-03-01T07:09:51;97192.66;;;3.35;58.78
3150;BME280;32503;47.748;8.960;2023-03-01T07:12:20;97192.25;;;3.28;58.83
3150;BME280;32503;47.748;8.960;2023-03-01T07:14:47;97194.53;;;3.35;58.79
3150;BME280;32503;47.748;8.960;2023-03-01T07:17:14;97173.50;;;3.19;58.98
3150;BME280;32503;47.748;8.960;2023-03-01T07:19:41;97192.16;;;3.33;59.00
3150;BME280;32503;47.748;8.960;2023-03-01T07:22:08;97184.84;;;3.25;58.80
3150;BME280;32503;47.748;8.960;2023-03-01T07:24:35;97189.09;;;3.40;58.63
3150;BME280;32503;47.748;8.960;2023-03-01T07:27:02;97187.19;;;3.40;58.75
3150;BME280;32503;47.748;8.960;2023-03-01T07:29:31;97199.28;;;3.38;58.91
3150;BME280;32503;47.748;8.960;2023-03-01T07:31:58;97189.38;;;3.38;58.93
3150;BME280;32503;47.748;8.960;2023-03-01T07:34:25;97191.47;;;3.41;58.22
3150;BME280;32503;47.748;8.960;2023-03-01T07:36:52;97164.06;;;3.22;58.50
3150;BME280;32503;47.748;8.960;2023-03-01T07:39:19;97191.94;;;3.44;58.38
3150;BME280;32503;47.748;8.960;2023-03-01T07:41:48;97181.84;;;3.40;58.71
3150;BME280;32503;47.748;8.960;2023-03-01T07:44:15;97181.38;;;3.38;58.64
3150;BME280;32503;47.748;8.960;2023-03-01T07:46:44;97177.50;;;3.45;58.48
3150;BME280;32503;47.748;8.960;2023-03-01T07:49:11;97180.28;;;3.39;58.37
3150;BME280;32503;47.748;8.960;2023-03-01T07:51:38;97169.69;;;3.34;58.72
3150;BME280;32503;47.748;8.960;2023-03-01T07:54:05;97172.19;;;3.17;59.29
3150;BME280;32503;47.748;8.960;2023-03-01T07:56:32;97175.16;;;3.29;58.96
3150;BME280;32503;47.748;8.960;2023-03-01T07:59:00;97172.97;;;3.31;58.86
3150;BME280;32503;47.748;8.960;2023-03-01T08:01:27;97182.28;;;3.34;58.23
3150;BME280;32503;47.748;8.960;2023-03-01T08:03:55;97155.94;;;3.27;58.47
3150;BME280;32503;47.748;8.960;2023-03-01T08:06:22;97172.47;;;3.43;58.13
3150;BME280;32503;47.748;8.960;2023-03-01T08:08:49;97173.44;;;3.33;62.84
3150;BME280;32503;47.748;8.960;2023-03-01T08:11:16;97162.56;;;3.80;65.02
3150;BME280;32503;47.748;8.960;2023-03-01T08:13:43;97171.59;;;3.70;59.24
3150;BME280;32503;47.748;8.960;2023-03-01T08:16:12;97167.34;;;3.69;58.25
3150;BME280;32503;47.748;8.960;2023-03-01T08:18:40;97163.38;;;3.67;58.04
3150;BME280;32503;47.748;8.960;2023-03-01T08:21:12;97161.75;;;3.57;57.97
3150;BME280;32503;47.748;8.960;2023-03-01T08:23:40;97170.16;;;3.50;57.88
3150;BME280;32503;47.748;8.960;2023-03-01T08:26:10;97161.97;;;3.47;58.13
3150;BME280;32503;47.748;8.960;2023-03-01T08:28:38;97157.97;;;3.58;57.88
3150;BME280;32503;47.748;8.960;2023-03-01T08:31:15;97154.69;;;3.61;57.77
3150;BME280;32503;47.748;8.960;2023-03-01T08:33:43;97159.56;;;3.59;57.43
3150;BME280;32503;47.748;8.960;2023-03-01T08:36:11;97147.25;;;3.58;57.92
3150;BME280;32503;47.748;8.960;2023-03-01T08:38:38;97146.66;;;3.61;57.62
3150;BME280;32503;47.748;8.960;2023-03-01T08:41:05;97147.34;;;3.67;58.04
3150;BME280;32503;47.748;8.960;2023-03-01T08:43:32;97144.06;;;3.70;57.35
3150;BME280;32503;47.748;8.960;2023-03-01T08:45:59;97150.69;;;3.72;57.47
3150;BME280;32503;47.748;8.960;2023-03-01T08:48:28;97114.72;;;3.42;57.45
3150;BME280;32503;47.748;8.960;2023-03-01T08:50:55;97140.25;;;3.62;57.32
3150;BME280;32503;47.748;8.960;2023-03-01T08:53:24;97138.84;;;3.65;57.71
3150;BME280;32503;47.748;8.960;2023-03-01T08:55:51;97136.22;;;3.73;57.52
3150;BME280;32503;47.748;8.960;2023-03-01T08:58:18;97147.31;;;3.80;57.24
3150;BME280;32503;47.748;8.960;2023-03-01T09:00:45;97147.19;;;3.86;57.10
3150;BME280;32503;47.748;8.960;2023-03-01T09:03:12;97145.09;;;3.83;56.92
3150;BME280;32503;47.748;8.960;2023-03-01T09:05:39;97123.28;;;3.67;56.97
3150;BME280;32503;47.748;8.960;2023-03-01T09:08:06;97146.03;;;3.78;56.98
3150;BME280;32503;47.748;8.960;2023-03-01T09:10:38;97143.06;;;3.79;56.88
3150;BME280;32503;47.748;8.960;2023-03-01T09:13:06;97147.78;;;3.83;56.95
3150;BME280;32503;47.748;8.960;2023-03-01T09:15:33;97139.22;;;3.72;57.32
3150;BME280;32503;47.748;8.960;2023-03-01T09:18:00;97136.59;;;3.80;57.04
3150;BME280;32503;47.748;8.960;2023-03-01T09:20:27;97134.28;;;3.88;56.94
3150;BME280;32503;47.748;8.960;2023-03-01T09:22:54;97126.38;;;3.83;57.11
3150;BME280;32503;47.748;8.960;2023-03-01T09:25:21;97122.75;;;3.78;57.02
3150;BME280;32503;47.748;8.960;2023-03-01T09:27:50;97079.47;;;3.54;56.71
3150;BME280;32503;47.748;8.960;2023-03-01T09:30:18;97111.94;;;3.84;56.86
3150;BME280;32503;47.748;8.960;2023-03-01T09:32:46;97120.97;;;3.96;56.81
3150;BME280;32503;47.748;8.960;2023-03-01T09:35:13;97119.25;;;3.92;56.62
3150;BME280;32503;47.748;8.960;2023-03-01T09:37:40;97113.81;;;3.83;56.92
3150;BME280;32503;47.748;8.960;2023-03-01T09:40:14;97116.00;;;3.81;56.29
3150;BME280;32503;47.748;8.960;2023-03-01T09:42:52;97117.16;;;3.89;56.04
3150;BME280;32503;47.748;8.960;2023-03-01T09:45:28;97111.09;;;3.74;56.39
3150;BME280;32503;47.748;8.960;2023-03-01T09:47:57;97122.56;;;3.75;56.63
3150;BME280;32503;47.748;8.960;2023-03-01T09:50:31;97127.19;;;3.83;56.16
3150;BME280;32503;47.748;8.960;2023-03-01T09:53:02;97140.63;;;3.92;55.77
3150;BME280;32503;47.748;8.960;2023-03-01T09:55:37;97135.47;;;3.95;55.83
3150;BME280;32503;47.748;8.960;2023-03-01T09:58:30;97129.84;;;4.06;55.73
3150;BME280;32503;47.748;8.960;2023-03-01T10:01:09;97120.88;;;4.02;55.80
3150;BME280;32503;47.748;8.960;2023-03-01T10:03:44;97123.59;;;4.10;55.84
3150;BME280;32503;47.748;8.960;2023-03-01T10:06:19;97121.28;;;3.95;56.29
3150;BME280;32503;47.748;8.960;2023-03-01T10:08:55;97112.53;;;4.03;56.26
3150;BME280;32503;47.748;8.960;2023-03-01T10:11:26;97127.00;;;4.02;56.05
3150;BME280;32503;47.748;8.960;2023-03-01T10:14:01;97110.47;;;4.00;55.81
3150;BME280;32503;47.748;8.960;2023-03-01T10:16:40;97105.59;;;4.02;55.87
3150;BME280;32503;47.748;8.960;2023-03-01T10:19:16;97100.78;;;4.13;55.89
3150;BME280;32503;47.748;8.960;2023-03-01T10:21:45;97107.28;;;4.21;55.57
3150;BME280;32503;47.748;8.960;2023-03-01T10:24:15;97104.31;;;4.22;55.59
3150;BME280;32503;47.748;8.960;2023-03-01T10:26:53;97066.75;;;4.05;55.72
3150;BME280;32503;47.748;8.960;2023-03-01T10:29:25;97104.34;;;4.31;55.55
3150;BME280;32503;47.748;8.960;2023-03-01T10:31:56;97101.69;;;4.31;55.39
3150;BME280;32503;47.748;8.960;2023-03-01T10:34:29;97085.53;;;4.13;55.63
3150;BME280;32503;47.748;8.960;2023-03-01T10:37:04;97085.44;;;4.27;55.35
3150;BME280;32503;47.748;8.960;2023-03-01T10:39:35;97099.66;;;4.36;54.96
3150;BME280;32503;47.748;8.960;2023-03-01T10:42:04;97077.91;;;4.29;55.09
3150;BME280;32503;47.748;8.960;2023-03-01T10:44:43;97098.13;;;4.44;55.10
3150;BME280;32503;47.748;8.960;2023-03-01T10:47:18;97051.56;;;4.23;54.61
3150;BME280;32503;47.748;8.960;2023-03-01T10:50:00;97070.56;;;4.44;54.29
3150;BME280;32503;47.748;8.960;2023-03-01T10:52:32;97087.88;;;4.46;54.46
3150;BME280;32503;47.748;8.960;2023-03-01T10:55:03;97080.03;;;4.50;54.25
3150;BME280;32503;47.748;8.960;2023-03-01T10:57:35;97081.13;;;4.49;54.44
3150;BME280;32503;47.748;8.960;2023-03-01T11:00:25;97051.44;;;4.28;54.86
3150;BME280;32503;47.748;8.960;2023-03-01T11:03:10;97088.22;;;4.53;54.56
3150;BME280;32503;47.748;8.960;2023-03-01T11:05:52;97080.16;;;4.36;54.49
3150;BME280;32503;47.748;8.960;2023-03-01T11:08:40;97093.22;;;4.46;54.66
3150;BME280;32503;47.748;8.960;2023-03-01T11:11:32;97080.34;;;4.48;54.69
3150;BME280;32503;47.748;8.960;2023-03-01T11:14:05;97073.31;;;4.30;54.47
3150;BME280;32503;47.748;8.960;2023-03-01T11:16:36;97063.56;;;4.34;54.45
3150;BME280;32503;47.748;8.960;2023-03-01T11:19:19;97052.81;;;4.25;54.24
3150;BME280;32503;47.748;8.960;2023-03-01T11:21:59;97079.34;;;4.35;54.54
3150;BME280;32503;47.748;8.960;2023-03-01T11:24:35;97056.91;;;4.23;54.67
3150;BME280;32503;47.748;8.960;2023-03-01T11:27:15;97065.16;;;4.35;54.44
3150;BME280;32503;47.748;8.960;2023-03-01T11:29:46;97065.28;;;4.30;54.61
3150;BME280;32503;47.748;8.960;2023-03-01T11:32:19;97064.56;;;4.38;54.32
3150;BME280;32503;47.748;8.960;2023-03-01T11:34:56;97061.41;;;4.36;54.60
3150;BME280;32503;47.748;8.960;2023-03-01T11:37:35;97066.47;;;4.46;54.52
3150;BME280;32503;47.748;8.960;2023-03-01T11:40:14;97048.47;;;4.29;54.51
3150;BME280;32503;47.748;8.960;2023-03-01T11:42:59;97069.31;;;4.50;53.87
3150;BME280;32503;47.748;8.960;2023-03-01T11:45:39;97056.41;;;4.43;53.77
3150;BME280;32503;47.748;8.960;2023-03-01T11:48:35;97071.38;;;4.53;53.60
3150;BME280;32503;47.748;8.960;2023-03-01T11:51:13;97065.84;;;4.49;54.04
3150;BME280;32503;47.748;8.960;2023-03-01T11:53:58;97059.75;;;4.58;53.74
3150;BME280;32503;47.748;8.960;2023-03-01T11:56:32;97061.81;;;4.61;53.49
3150;BME280;32503;47.748;8.960;2023-03-01T11:59:17;97058.03;;;4.62;53.56
3150;BME280;32503;47.748;8.960;2023-03-01T12:02:07;97053.28;;;4.59;53.29
3150;BME280;32503;47.748;8.960;2023-03-01T12:05:00;97044.44;;;4.49;53.77
3150;BME280;32503;47.748;8.960;2023-03-01T12:07:39;97048.84;;;4.45;53.41
3150;BME280;32503;47.748;8.960;2023-03-01T12:10:22;97051.00;;;4.34;53.82
3150;BME280;32503;47.748;8.960;2023-03-01T12:13:23;97016.31;;;4.21;53.69
3150;BME280;32503;47.748;8.960;2023-03-01T12:16:29;97028.97;;;4.46;53.16
3150;BME280;32503;47.748;8.960;2023-03-01T12:19:21;97019.41;;;4.54;53.21
3150;BME280;32503;47.748;8.960;2023-03-01T12:25:06;96999.56;;;4.55;53.16
3150;BME280;32503;47.748;8.960;2023-03-01T12:28:04;97000.69;;;4.63;52.94
3150;BME280;32503;47.748;8.960;2023-03-01T12:30:46;97017.31;;;5.08;62.48
3150;BME280;32503;47.748;8.960;2023-03-01T12:33:24;96997.28;;;5.06;54.40
3150;BME280;32503;47.748;8.960;2023-03-01T12:36:36;96990.50;;;5.08;52.94
3150;BME280;32503;47.748;8.960;2023-03-01T12:39:24;96975.38;;;4.95;52.90
3150;BME280;32503;47.748;8.960;2023-03-01T12:42:04;97002.78;;;4.92;52.60
3150;BME280;32503;47.748;8.960;2023-03-01T12:44:52;96995.84;;;4.82;52.31
3150;BME280;32503;47.748;8.960;2023-03-01T12:47:54;96994.59;;;4.97;55.38
3150;BME280;32503;47.748;8.960;2023-03-01T12:50:43;96979.22;;;4.45;52.43
3150;BME280;32503;47.748;8.960;2023-03-01T12:53:23;96971.66;;;4.47;53.09
3150;BME280;32503;47.748;8.960;2023-03-01T12:55:54;96992.81;;;4.58;52.76
3150;BME280;32503;47.748;8.960;2023-03-01T12:58:28;96969.19;;;4.60;53.07
3150;BME280;32503;47.748;8.960;2023-03-01T13:01:08;96932.13;;;4.35;53.04
3150;BME280;32503;47.748;8.960;2023-03-01T13:03:58;96992.84;;;4.75;52.88
3150;BME280;32503;47.748;8.960;2023-03-01T13:06:35;96988.75;;;4.86;52.65
3150;BME280;32503;47.748;8.960;2023-03-01T13:09:18;96983.88;;;4.97;52.36
3150;BME280;32503;47.748;8.960;2023-03-01T13:11:48;96993.16;;;5.35;62.46
3150;BME280;32503;47.748;8.960;2023-03-01T13:14:45;96996.81;;;5.39;54.31
3150;BME280;32503;47.748;8.960;2023-03-01T13:17:41;96973.31;;;5.18;52.38
3150;BME280;32503;47.748;8.960;2023-03-01T13:20:15;96998.38;;;5.22;52.49
3150;BME280;32503;47.748;8.960;2023-03-01T13:22:45;96984.34;;;5.08;52.99
3150;BME280;32503;47.748;8.960;2023-03-01T13:25:17;96978.69;;;5.18;55.24
3150;BME280;32503;47.748;8.960;2023-03-01T13:27:46;96989.88;;;5.38;53.42
3150;BME280;32503;47.748;8.960;2023-03-01T13:30:43;96980.56;;;5.26;52.27
3150;BME280;32503;47.748;8.960;2023-03-01T13:33:43;96984.97;;;5.22;52.29
3150;BME280;32503;47.748;8.960;2023-03-01T13:38:57;96986.72;;;5.01;52.90
3150;BME280;32503;47.748;8.960;2023-03-01T13:41:49;96986.41;;;4.93;52.93
3150;BME280;32503;47.748;8.960;2023-03-01T13:44:24;96952.53;;;4.80;52.82
3150;BME280;32503;47.748;8.960;2023-03-01T13:46:56;96972.06;;;4.98;52.88
3150;BME280;32503;47.748;8.960;2023-03-01T13:49:28;96967.03;;;4.97;52.52
3150;BME280;32503;47.748;8.960;2023-03-01T13:51:57;96984.50;;;5.11;52.49
3150;BME280;32503;47.748;8.960;2023-03-01T13:54:29;96974.91;;;5.10;52.63